sensor_id;sensor_type;location;lat;lon;timestamp;P1;durP1;ratioP1;P2;durP2;ratioP2
9306;SDS011;4691;47.612;7.610;2022-09-09T00:04:53;11.75;;;3.80;;
9306;SDS011;4691;47.612;7.610;2022-09-09T00:15:38;9.45;;;3.30;;
9306;SDS011;4691;47.612;7.610;2022-09-09T00:20:52;10.13;;;4.07;;
9306;SDS011;4691;47.612;7.610;2022-09-09T00:29:33;6.80;;;3.03;;
9306;SDS011;4691;47.612;7.610;2022-09-09T00:32:14;7.45;;;2.97;;
9306;SDS011;4691;47.612;7.610;2022-09-09T00:37:28;7.68;;;2.67;;
9306;SDS011;4691;47.612;7.610;2022-09-09T00:39:57;6.00;;;2.83;;
9306;SDS011;4691;47.612;7.610;2022-09-09T00:42:32;7.85;;;2.50;;
9306;SDS011;4691;47.612;7.610;2022-09-09T00:47:57;6.00;;;2.72;;
9306;SDS011;4691;47.612;7.610;2022-09-09T00:56:13;6.63;;;2.55;;
9306;SDS011;4691;47.612;7.610;2022-09-09T00:58:48;10.32;;;3.28;;
9306;SDS011;4691;47.612;7.610;2022-09-09T01:01:27;13.27;;;3.30;;
9306;SDS011;4691;47.612;7.610;2022-09-09T01:03:53;5.78;;;2.60;;
9306;SDS011;4691;47.612;7.610;2022-09-09T01:06:30;9.48;;;2.92;;
9306;SDS011;4691;47.612;7.610;2022-09-09T01:09:07;8.27;;;3.38;;
9306;SDS011;4691;47.612;7.610;2022-09-09T01:11:51;9.90;;;3.35;;
9306;SDS011;4691;47.612;7.610;2022-09-09T01:16:56;11.07;;;3.75;;
9306;SDS011;4691;47.612;7.610;2022-09-09T01:20:12;10.68;;;3.17;;
9306;SDS011;4691;47.612;7.610;2022-09-09T01:28:08;8.57;;;3.50;;
9306;SDS011;4691;47.612;7.610;2022-09-09T01:30:38;11.70;;;3.78;;
9306;SDS011;4691;47.612;7.610;2022-09-09T01:36:36;7.30;;;3.05;;
9306;SDS011;4691;47.612;7.610;2022-09-09T01:39:23;7.95;;;3.45;;
9306;SDS011;4691;47.612;7.610;2022-09-09T01:41:49;6.00;;;3.25;;
9306;SDS011;4691;47.612;7.610;2022-09-09T01:44:15;11.95;;;3.50;;
9306;SDS011;4691;47.612;7.610;2022-09-09T01:46:40;7.78;;;3.25;;
9306;SDS011;4691;47.612;7.610;2022-09-09T01:49:06;11.27;;;3.53;;
9306;SDS011;4691;47.612;7.610;2022-09-09T01:51:33;6.90;;;3.28;;
9306;SDS011;4691;47.612;7.610;2022-09-09T01:54:00;7.93;;;3.30;;
9306;SDS011;4691;47.612;7.610;2022-09-09T01:59:20;4.68;;;3.00;;
9306;SDS011;4691;47.612;7.610;2022-09-09T02:02:23;8.48;;;3.13;;
9306;SDS011;4691;47.612;7.610;2022-09-09T02:04:50;6.88;;;3.15;;
9306;SDS011;4691;47.612;7.610;2022-09-09T02:10:12;7.20;;;3.10;;
9306;SDS011;4691;47.612;7.610;2022-09-09T02:12:44;4.50;;;2.83;;
9306;SDS011;4691;47.612;7.610;2022-09-09T02:15:18;8.43;;;3.05;;
9306;SDS011;4691;47.612;7.610;2022-09-09T02:19:36;5.38;;;2.80;;
9306;SDS011;4691;47.612;7.610;2022-09-09T02:22:04;11.57;;;3.35;;
9306;SDS011;4691;47.612;7.610;2022-09-09T02:24:30;7.30;;;3.13;;
9306;SDS011;4691;47.612;7.610;2022-09-09T02:27:00;6.85;;;2.53;;
9306;SDS011;4691;47.612;7.610;2022-09-09T02:29:34;6.07;;;2.70;;
9306;SDS011;4691;47.612;7.610;2022-09-09T02:32:04;8.77;;;2.67;;
9306;SDS011;4691;47.612;7.610;2022-09-09T02:34:35;6.43;;;2.50;;
9306;SDS011;4691;47.612;7.610;2022-09-09T02:37:04;7.25;;;2.50;;
9306;SDS011;4691;47.612;7.610;2022-09-09T02:39:33;9.63;;;2.85;;
9306;SDS011;4691;47.612;7.610;2022-09-09T02:41:59;5.18;;;2.25;;
9306;SDS011;4691;47.612;7.610;2022-09-09T02:44:24;4.43;;;2.70;;
9306;SDS011;4691;47.612;7.610;2022-09-09T02:49:24;5.70;;;2.40;;
9306;SDS011;4691;47.612;7.610;2022-09-09T02:52:14;5.43;;;2.28;;
9306;SDS011;4691;47.612;7.610;2022-09-09T02:54:44;7.38;;;2.67;;
9306;SDS011;4691;47.612;7.610;2022-09-09T02:57:21;7.45;;;2.83;;
9306;SDS011;4691;47.612;7.610;2022-09-09T03:02:17;9.23;;;2.75;;
9306;SDS011;4691;47.612;7.610;2022-09-09T03:04:43;3.60;;;2.58;;
9306;SDS011;4691;47.612;7.610;2022-09-09T03:07:09;6.72;;;2.72;;
9306;SDS011;4691;47.612;7.610;2022-09-09T03:09:37;5.40;;;2.78;;
9306;SDS011;4691;47.612;7.610;2022-09-09T03:12:03;4.97;;;2.83;;
9306;SDS011;4691;47.612;7.610;2022-09-09T03:14:32;8.05;;;3.08;;
9306;SDS011;4691;47.612;7.610;2022-09-09T03:16:57;8.13;;;3.10;;
9306;SDS011;4691;47.612;7.610;2022-09-09T03:19:25;5.35;;;2.90;;
9306;SDS011;4691;47.612;7.610;2022-09-09T03:21:52;5.03;;;2.67;;
9306;SDS011;4691;47.612;7.610;2022-09-09T03:24:18;6.32;;;3.20;;
9306;SDS011;4691;47.612;7.610;2022-09-09T03:26:46;5.70;;;2.85;;
9306;SDS011;4691;47.612;7.610;2022-09-09T03:29:11;4.95;;;3.17;;
9306;SDS011;4691;47.612;7.610;2022-09-09T03:31:37;10.77;;;3.35;;
9306;SDS011;4691;47.612;7.610;2022-09-09T03:34:03;5.55;;;2.25;;
9306;SDS011;4691;47.612;7.610;2022-09-09T03:36:29;7.35;;;2.85;;
9306;SDS011;4691;47.612;7.610;2022-09-09T03:38:55;4.53;;;2.40;;
9306;SDS011;4691;47.612;7.610;2022-09-09T03:41:21;6.85;;;2.95;;
9306;SDS011;4691;47.612;7.610;2022-09-09T03:43:51;6.32;;;2.90;;
9306;SDS011;4691;47.612;7.610;2022-09-09T03:46:17;6.93;;;2.83;;
9306;SDS011;4691;47.612;7.610;2022-09-09T03:48:46;6.00;;;2.78;;
9306;SDS011;4691;47.612;7.610;2022-09-09T03:51:12;5.97;;;2.75;;
9306;SDS011;4691;47.612;7.610;2022-09-09T03:53:37;5.00;;;2.40;;
9306;SDS011;4691;47.612;7.610;2022-09-09T03:56:05;5.03;;;2.75;;
9306;SDS011;4691;47.612;7.610;2022-09-09T03:58:34;4.53;;;2.78;;
9306;SDS011;4691;47.612;7.610;2022-09-09T04:01:02;8.30;;;2.97;;
9306;SDS011;4691;47.612;7.610;2022-09-09T04:03:33;6.30;;;3.00;;
9306;SDS011;4691;47.612;7.610;2022-09-09T04:05:59;6.68;;;3.03;;
9306;SDS011;4691;47.612;7.610;2022-09-09T04:08:27;7.95;;;3.40;;
9306;SDS011;4691;47.612;7.610;2022-09-09T04:10:52;5.78;;;2.85;;
9306;SDS011;4691;47.612;7.610;2022-09-09T04:13:23;4.65;;;2.63;;
9306;SDS011;4691;47.612;7.610;2022-09-09T04:15:53;7.07;;;2.92;;
9306;SDS011;4691;47.612;7.610;2022-09-09T04:18:20;6.28;;;2.67;;
9306;SDS011;4691;47.612;7.610;2022-09-09T04:20:47;4.30;;;2.70;;
9306;SDS011;4691;47.612;7.610;2022-09-09T04:23:13;9.07;;;2.78;;
9306;SDS011;4691;47.612;7.610;2022-09-09T04:25:43;4.50;;;2.70;;
9306;SDS011;4691;47.612;7.610;2022-09-09T04:28:09;7.18;;;3.25;;
9306;SDS011;4691;47.612;7.610;2022-09-09T04:30:35;4.63;;;2.92;;
9306;SDS011;4691;47.612;7.610;2022-09-09T04:33:00;6.25;;;3.22;;
9306;SDS011;4691;47.612;7.610;2022-09-09T04:35:26;9.88;;;3.20;;
9306;SDS011;4691;47.612;7.610;2022-09-09T04:37:52;8.70;;;3.03;;
9306;SDS011;4691;47.612;7.610;2022-09-09T04:40:17;6.53;;;2.75;;
9306;SDS011;4691;47.612;7.610;2022-09-09T04:42:42;5.70;;;2.90;;
9306;SDS011;4691;47.612;7.610;2022-09-09T04:45:09;4.72;;;2.72;;
9306;SDS011;4691;47.612;7.610;2022-09-09T04:47:36;4.10;;;2.60;;
9306;SDS011;4691;47.612;7.610;2022-09-09T04:50:01;4.63;;;2.53;;
9306;SDS011;4691;47.612;7.610;2022-09-09T04:52:27;6.63;;;3.13;;
9306;SDS011;4691;47.612;7.610;2022-09-09T04:54:52;8.90;;;2.85;;
9306;SDS011;4691;47.612;7.610;2022-09-09T04:57:19;6.80;;;3.13;;
9306;SDS011;4691;47.612;7.610;2022-09-09T04:59:44;4.60;;;2.75;;
9306;SDS011;4691;47.612;7.610;2022-09-09T05:02:10;10.95;;;3.58;;
9306;SDS011;4691;47.612;7.610;2022-09-09T05:04:36;6.80;;;3.10;;
9306;SDS011;4691;47.612;7.610;2022-09-09T05:07:01;7.68;;;3.03;;
9306;SDS011;4691;47.612;7.610;2022-09-09T05:09:26;5.45;;;3.10;;
9306;SDS011;4691;47.612;7.610;2022-09-09T05:11:51;6.97;;;2.78;;
9306;SDS011;4691;47.612;7.610;2022-09-09T05:14:17;7.93;;;3.08;;
9306;SDS011;4691;47.612;7.610;2022-09-09T05:16:44;5.20;;;2.80;;
9306;SDS011;4691;47.612;7.610;2022-09-09T05:19:10;5.85;;;2.70;;
9306;SDS011;4691;47.612;7.610;2022-09-09T05:21:36;7.38;;;2.97;;
9306;SDS011;4691;47.612;7.610;2022-09-09T05:24:02;6.53;;;2.90;;
9306;SDS011;4691;47.612;7.610;2022-09-09T05:26:27;6.50;;;3.30;;
9306;SDS011;4691;47.612;7.610;2022-09-09T05:28:54;10.63;;;3.35;;
9306;SDS011;4691;47.612;7.610;2022-09-09T05:31:20;4.95;;;2.97;;
9306;SDS011;4691;47.612;7.610;2022-09-09T05:33:46;8.20;;;3.30;;
9306;SDS011;4691;47.612;7.610;2022-09-09T05:36:14;9.15;;;2.95;;
9306;SDS011;4691;47.612;7.610;2022-09-09T05:38:44;7.28;;;3.40;;
9306;SDS011;4691;47.612;7.610;2022-09-09T05:41:10;11.55;;;3.53;;
9306;SDS011;4691;47.612;7.610;2022-09-09T05:43:37;8.45;;;3.25;;
9306;SDS011;4691;47.612;7.610;2022-09-09T05:46:15;7.10;;;3.35;;
9306;SDS011;4691;47.612;7.610;2022-09-09T05:48:44;8.07;;;3.28;;
9306;SDS011;4691;47.612;7.610;2022-09-09T05:51:12;8.77;;;3.33;;
9306;SDS011;4691;47.612;7.610;2022-09-09T05:56:13;7.13;;;3.47;;
9306;SDS011;4691;47.612;7.610;2022-09-09T05:58:40;6.53;;;3.58;;
9306;SDS011;4691;47.612;7.610;2022-09-09T06:01:12;8.63;;;3.33;;
9306;SDS011;4691;47.612;7.610;2022-09-09T06:03:40;9.15;;;3.00;;
9306;SDS011;4691;47.612;7.610;2022-09-09T06:06:07;10.20;;;3.92;;
9306;SDS011;4691;47.612;7.610;2022-09-09T06:08:36;6.70;;;3.45;;
9306;SDS011;4691;47.612;7.610;2022-09-09T06:11:06;8.35;;;3.20;;
9306;SDS011;4691;47.612;7.610;2022-09-09T06:13:33;10.60;;;3.53;;
9306;SDS011;4691;47.612;7.610;2022-09-09T06:16:00;9.48;;;3.67;;
9306;SDS011;4691;47.612;7.610;2022-09-09T06:18:25;7.07;;;3.45;;
9306;SDS011;4691;47.612;7.610;2022-09-09T06:20:58;6.60;;;4.10;;
9306;SDS011;4691;47.612;7.610;2022-09-09T06:23:25;8.25;;;3.30;;
9306;SDS011;4691;47.612;7.610;2022-09-09T06:25:59;10.80;;;3.33;;
9306;SDS011;4691;47.612;7.610;2022-09-09T06:28:42;8.70;;;3.10;;
9306;SDS011;4691;47.612;7.610;2022-09-09T06:31:12;9.55;;;3.53;;
9306;SDS011;4691;47.612;7.610;2022-09-09T06:33:39;6.82;;;3.00;;
9306;SDS011;4691;47.612;7.610;2022-09-09T06:36:51;10.77;;;2.95;;
9306;SDS011;4691;47.612;7.610;2022-09-09T06:38:56;9.40;;;2.88;;
9306;SDS011;4691;47.612;7.610;2022-09-09T06:41:22;7.25;;;2.40;;
9306;SDS011;4691;47.612;7.610;2022-09-09T06:43:48;10.38;;;3.17;;
9306;SDS011;4691;47.612;7.610;2022-09-09T06:46:17;10.13;;;2.95;;
9306;SDS011;4691;47.612;7.610;2022-09-09T06:48:44;7.55;;;2.88;;
9306;SDS011;4691;47.612;7.610;2022-09-09T06:51:14;8.95;;;3.67;;
9306;SDS011;4691;47.612;7.610;2022-09-09T06:53:42;9.13;;;2.83;;
9306;SDS011;4691;47.612;7.610;2022-09-09T06:58:34;9.27;;;2.90;;
9306;SDS011;4691;47.612;7.610;2022-09-09T07:01:01;7.28;;;2.50;;
9306;SDS011;4691;47.612;7.610;2022-09-09T07:03:28;9.90;;;3.75;;
9306;SDS011;4691;47.612;7.610;2022-09-09T07:05:56;7.55;;;2.88;;
9306;SDS011;4691;47.612;7.610;2022-09-09T07:08:24;7.55;;;3.10;;
9306;SDS011;4691;47.612;7.610;2022-09-09T07:10:50;7.13;;;2.80;;
9306;SDS011;4691;47.612;7.610;2022-09-09T07:13:18;6.47;;;2.55;;
9306;SDS011;4691;47.612;7.610;2022-09-09T07:15:52;13.27;;;3.45;;
9306;SDS011;4691;47.612;7.610;2022-09-09T07:18:18;7.40;;;3.60;;
9306;SDS011;4691;47.612;7.610;2022-09-09T07:20:54;8.48;;;3.15;;
9306;SDS011;4691;47.612;7.610;2022-09-09T07:23:21;9.30;;;3.00;;
9306;SDS011;4691;47.612;7.610;2022-09-09T07:25:47;7.78;;;2.58;;
9306;SDS011;4691;47.612;7.610;2022-09-09T07:28:12;6.90;;;2.50;;
9306;SDS011;4691;47.612;7.610;2022-09-09T07:30:38;6.97;;;2.90;;
9306;SDS011;4691;47.612;7.610;2022-09-09T07:33:04;6.05;;;2.42;;
9306;SDS011;4691;47.612;7.610;2022-09-09T07:35:29;14.38;;;3.05;;
9306;SDS011;4691;47.612;7.610;2022-09-09T07:37:54;8.23;;;2.70;;
9306;SDS011;4691;47.612;7.610;2022-09-09T07:40:20;10.63;;;3.88;;
9306;SDS011;4691;47.612;7.610;2022-09-09T07:42:46;7.22;;;2.53;;
9306;SDS011;4691;47.612;7.610;2022-09-09T07:45:12;8.43;;;3.20;;
9306;SDS011;4691;47.612;7.610;2022-09-09T07:47:37;6.57;;;2.75;;
9306;SDS011;4691;47.612;7.610;2022-09-09T07:50:03;8.43;;;2.70;;
9306;SDS011;4691;47.612;7.610;2022-09-09T07:52:28;5.45;;;2.83;;
9306;SDS011;4691;47.612;7.610;2022-09-09T07:54:53;8.32;;;3.38;;
9306;SDS011;4691;47.612;7.610;2022-09-09T07:57:23;10.60;;;3.08;;
9306;SDS011;4691;47.612;7.610;2022-09-09T07:59:48;3.97;;;2.83;;
9306;SDS011;4691;47.612;7.610;2022-09-09T08:02:13;12.30;;;2.72;;
9306;SDS011;4691;47.612;7.610;2022-09-09T08:04:39;6.75;;;2.75;;
9306;SDS011;4691;47.612;7.610;2022-09-09T08:07:04;8.68;;;2.00;;
9306;SDS011;4691;47.612;7.610;2022-09-09T08:09:29;7.03;;;2.45;;
9306;SDS011;4691;47.612;7.610;2022-09-09T08:11:57;7.10;;;2.03;;
9306;SDS011;4691;47.612;7.610;2022-09-09T08:14:23;6.53;;;1.73;;
9306;SDS011;4691;47.612;7.610;2022-09-09T08:16:52;7.22;;;2.53;;
9306;SDS011;4691;47.612;7.610;2022-09-09T08:19:21;9.13;;;1.98;;
9306;SDS011;4691;47.612;7.610;2022-09-09T08:21:46;3.88;;;1.40;;
9306;SDS011;4691;47.612;7.610;2022-09-09T08:24:12;6.50;;;2.22;;
9306;SDS011;4691;47.612;7.610;2022-09-09T08:26:42;7.50;;;1.90;;
9306;SDS011;4691;47.612;7.610;2022-09-09T08:29:09;4.43;;;1.77;;
9306;SDS011;4691;47.612;7.610;2022-09-09T08:31:36;5.80;;;1.70;;
9306;SDS011;4691;47.612;7.610;2022-09-09T08:34:03;8.05;;;2.00;;
9306;SDS011;4691;47.612;7.610;2022-09-09T08:36:31;14.27;;;2.33;;
9306;SDS011;4691;47.612;7.610;2022-09-09T08:38:58;7.97;;;1.90;;
9306;SDS011;4691;47.612;7.610;2022-09-09T08:44:26;7.13;;;1.60;;
9306;SDS011;4691;47.612;7.610;2022-09-09T08:50:19;5.38;;;1.50;;
9306;SDS011;4691;47.612;7.610;2022-09-09T08:53:00;8.57;;;1.30;;
9306;SDS011;4691;47.612;7.610;2022-09-09T08:55:37;9.10;;;1.80;;
9306;SDS011;4691;47.612;7.610;2022-09-09T08:58:14;5.77;;;1.30;;
9306;SDS011;4691;47.612;7.610;2022-09-09T09:03:30;4.30;;;1.48;;
9306;SDS011;4691;47.612;7.610;2022-09-09T09:06:01;8.77;;;1.58;;
9306;SDS011;4691;47.612;7.610;2022-09-09T09:11:08;9.73;;;1.90;;
9306;SDS011;4691;47.612;7.610;2022-09-09T09:16:15;7.63;;;1.60;;
9306;SDS011;4691;47.612;7.610;2022-09-09T09:18:42;9.57;;;1.60;;
9306;SDS011;4691;47.612;7.610;2022-09-09T09:21:12;3.92;;;1.27;;
9306;SDS011;4691;47.612;7.610;2022-09-09T09:23:54;5.40;;;1.33;;
9306;SDS011;4691;47.612;7.610;2022-09-09T09:26:28;4.05;;;1.17;;
9306;SDS011;4691;47.612;7.610;2022-09-09T09:29:15;4.30;;;1.10;;
9306;SDS011;4691;47.612;7.610;2022-09-09T09:31:55;6.70;;;1.50;;
9306;SDS011;4691;47.612;7.610;2022-09-09T09:34:24;7.22;;;1.98;;
9306;SDS011;4691;47.612;7.610;2022-09-09T09:36:56;6.13;;;1.17;;
9306;SDS011;4691;47.612;7.610;2022-09-09T09:39:26;7.28;;;1.52;;
9306;SDS011;4691;47.612;7.610;2022-09-09T09:41:56;6.40;;;1.40;;
9306;SDS011;4691;47.612;7.610;2022-09-09T09:46:48;8.25;;;1.58;;
9306;SDS011;4691;47.612;7.610;2022-09-09T09:49:15;8.82;;;1.73;;
9306;SDS011;4691;47.612;7.610;2022-09-09T09:52:12;9.07;;;1.30;;
9306;SDS011;4691;47.612;7.610;2022-09-09T09:54:46;4.05;;;1.30;;
9306;SDS011;4691;47.612;7.610;2022-09-09T09:57:14;7.18;;;1.58;;
9306;SDS011;4691;47.612;7.610;2022-09-09T09:59:41;5.22;;;1.10;;
9306;SDS011;4691;47.612;7.610;2022-09-09T10:02:21;4.10;;;1.05;;
9306;SDS011;4691;47.612;7.610;2022-09-09T10:05:02;5.82;;;1.30;;
9306;SDS011;4691;47.612;7.610;2022-09-09T10:07:45;11.25;;;1.92;;
9306;SDS011;4691;47.612;7.610;2022-09-09T10:10:23;5.15;;;1.20;;
9306;SDS011;4691;47.612;7.610;2022-09-09T10:19:20;5.88;;;1.50;;
9306;SDS011;4691;47.612;7.610;2022-09-09T10:22:04;4.25;;;1.17;;
9306;SDS011;4691;47.612;7.610;2022-09-09T10:27:30;8.52;;;1.25;;
9306;SDS011;4691;47.612;7.610;2022-09-09T10:36:16;4.93;;;1.45;;
9306;SDS011;4691;47.612;7.610;2022-09-09T10:44:48;4.72;;;1.10;;
9306;SDS011;4691;47.612;7.610;2022-09-09T10:47:40;6.83;;;1.43;;
9306;SDS011;4691;47.612;7.610;2022-09-09T10:55:43;3.85;;;1.40;;
9306;SDS011;4691;47.612;7.610;2022-09-09T11:01:29;6.60;;;1.42;;
9306;SDS011;4691;47.612;7.610;2022-09-09T11:04:22;5.85;;;1.52;;
9306;SDS011;4691;47.612;7.610;2022-09-09T11:13:21;9.40;;;1.40;;
9306;SDS011;4691;47.612;7.610;2022-09-09T11:15:52;6.53;;;1.40;;
9306;SDS011;4691;47.612;7.610;2022-09-09T11:26:01;8.32;;;1.20;;
9306;SDS011;4691;47.612;7.610;2022-09-09T11:31:53;6.78;;;1.48;;
9306;SDS011;4691;47.612;7.610;2022-09-09T11:45:53;6.80;;;1.35;;
9306;SDS011;4691;47.612;7.610;2022-09-09T11:50:59;6.82;;;1.70;;
9306;SDS011;4691;47.612;7.610;2022-09-09T11:53:30;6.28;;;1.70;;
9306;SDS011;4691;47.612;7.610;2022-09-09T11:56:00;4.97;;;1.33;;
9306;SDS011;4691;47.612;7.610;2022-09-09T11:58:28;5.07;;;1.23;;
9306;SDS011;4691;47.612;7.610;2022-09-09T12:04:04;5.20;;;1.30;;
9306;SDS011;4691;47.612;7.610;2022-09-09T12:06:31;4.35;;;1.02;;
9306;SDS011;4691;47.612;7.610;2022-09-09T12:09:05;2.80;;;0.93;;
9306;SDS011;4691;47.612;7.610;2022-09-09T12:11:33;4.13;;;1.23;;
9306;SDS011;4691;47.612;7.610;2022-09-09T12:14:18;4.80;;;1.00;;
9306;SDS011;4691;47.612;7.610;2022-09-09T12:17:22;4.68;;;1.00;;
9306;SDS011;4691;47.612;7.610;2022-09-09T12:39:57;5.28;;;1.40;;
9306;SDS011;4691;47.612;7.610;2022-09-09T12:42:27;5.30;;;1.30;;
9306;SDS011;4691;47.612;7.610;2022-09-09T12:44:54;4.50;;;1.60;;
9306;SDS011;4691;47.612;7.610;2022-09-09T12:52:48;3.25;;;1.20;;
9306;SDS011;4691;47.612;7.610;2022-09-09T12:59:24;4.10;;;1.00;;
9306;SDS011;4691;47.612;7.610;2022-09-09T13:01:56;4.88;;;1.20;;
9306;SDS011;4691;47.612;7.610;2022-09-09T13:04:33;2.83;;;0.80;;
9306;SDS011;4691;47.612;7.610;2022-09-09T13:07:39;4.07;;;0.90;;
9306;SDS011;4691;47.612;7.610;2022-09-09T13:10:09;2.20;;;0.90;;
9306;SDS011;4691;47.612;7.610;2022-09-09T13:12:38;3.72;;;0.90;;
9306;SDS011;4691;47.612;7.610;2022-09-09T13:15:05;5.15;;;1.02;;
9306;SDS011;4691;47.612;7.610;2022-09-09T13:17:49;2.90;;;0.73;;
9306;SDS011;4691;47.612;7.610;2022-09-09T13:20:26;2.55;;;0.95;;
9306;SDS011;4691;47.612;7.610;2022-09-09T13:22:53;2.70;;;0.82;;
9306;SDS011;4691;47.612;7.610;2022-09-09T13:26:06;3.28;;;0.85;;
9306;SDS011;4691;47.612;7.610;2022-09-09T13:28:47;2.53;;;0.90;;
9306;SDS011;4691;47.612;7.610;2022-09-09T13:31:24;5.75;;;0.98;;
9306;SDS011;4691;47.612;7.610;2022-09-09T13:37:23;3.15;;;0.90;;
9306;SDS011;4691;47.612;7.610;2022-09-09T13:39:56;3.38;;;1.00;;
9306;SDS011;4691;47.612;7.610;2022-09-09T13:42:35;3.45;;;0.95;;
9306;SDS011;4691;47.612;7.610;2022-09-09T13:45:52;4.82;;;1.10;;
9306;SDS011;4691;47.612;7.610;2022-09-09T13:48:32;3.22;;;0.80;;
9306;SDS011;4691;47.612;7.610;2022-09-09T13:51:21;3.28;;;1.38;;
9306;SDS011;4691;47.612;7.610;2022-09-09T14:07:43;5.93;;;1.25;;
9306;SDS011;4691;47.612;7.610;2022-09-09T14:13:20;6.40;;;1.00;;
9306;SDS011;4691;47.612;7.610;2022-09-09T14:15:54;7.03;;;1.05;;
9306;SDS011;4691;47.612;7.610;2022-09-09T14:18:20;3.13;;;0.70;;
9306;SDS011;4691;47.612;7.610;2022-09-09T14:20:53;4.18;;;0.98;;
9306;SDS011;4691;47.612;7.610;2022-09-09T14:23:53;1.75;;;0.80;;
9306;SDS011;4691;47.612;7.610;2022-09-09T14:30:18;5.57;;;0.88;;
9306;SDS011;4691;47.612;7.610;2022-09-09T14:32:45;8.93;;;1.05;;
9306;SDS011;4691;47.612;7.610;2022-09-09T14:35:11;2.55;;;0.82;;
9306;SDS011;4691;47.612;7.610;2022-09-09T14:37:37;2.83;;;1.10;;
9306;SDS011;4691;47.612;7.610;2022-09-09T14:40:37;6.15;;;0.80;;
9306;SDS011;4691;47.612;7.610;2022-09-09T14:43:13;2.65;;;0.80;;
9306;SDS011;4691;47.612;7.610;2022-09-09T14:45:39;2.97;;;1.05;;
9306;SDS011;4691;47.612;7.610;2022-09-09T14:51:43;7.57;;;0.93;;
9306;SDS011;4691;47.612;7.610;2022-09-09T14:57:29;0.75;;;0.60;;
9306;SDS011;4691;47.612;7.610;2022-09-09T15:00:01;1.10;;;0.55;;
9306;SDS011;4691;47.612;7.610;2022-09-09T15:02:33;3.30;;;0.82;;
9306;SDS011;4691;47.612;7.610;2022-09-09T15:08:07;1.95;;;0.90;;
9306;SDS011;4691;47.612;7.610;2022-09-09T15:10:49;3.78;;;0.98;;
9306;SDS011;4691;47.612;7.610;2022-09-09T15:13:21;4.13;;;0.93;;
9306;SDS011;4691;47.612;7.610;2022-09-09T15:15:50;5.25;;;0.93;;
9306;SDS011;4691;47.612;7.610;2022-09-09T15:18:55;4.28;;;1.05;;
9306;SDS011;4691;47.612;7.610;2022-09-09T15:21:32;4.35;;;0.95;;
9306;SDS011;4691;47.612;7.610;2022-09-09T15:24:37;5.43;;;1.00;;
9306;SDS011;4691;47.612;7.610;2022-09-09T15:27:02;2.75;;;1.25;;
9306;SDS011;4691;47.612;7.610;2022-09-09T15:29:40;3.83;;;0.93;;
9306;SDS011;4691;47.612;7.610;2022-09-09T15:32:14;2.85;;;1.00;;
9306;SDS011;4691;47.612;7.610;2022-09-09T15:34:42;2.30;;;0.73;;
9306;SDS011;4691;47.612;7.610;2022-09-09T15:37:09;4.38;;;1.05;;
9306;SDS011;4691;47.612;7.610;2022-09-09T15:39:47;4.05;;;1.10;;
9306;SDS011;4691;47.612;7.610;2022-09-09T15:42:14;6.78;;;1.33;;
9306;SDS011;4691;47.612;7.610;2022-09-09T15:54:53;4.95;;;0.70;;
9306;SDS011;4691;47.612;7.610;2022-09-09T16:34:22;3.72;;;0.90;;
9306;SDS011;4691;47.612;7.610;2022-09-09T16:44:36;2.72;;;0.77;;
9306;SDS011;4691;47.612;7.610;2022-09-09T16:47:01;2.13;;;0.80;;
9306;SDS011;4691;47.612;7.610;2022-09-09T16:49:27;2.75;;;0.85;;
9306;SDS011;4691;47.612;7.610;2022-09-09T16:51:53;3.17;;;0.70;;
9306;SDS011;4691;47.612;7.610;2022-09-09T16:54:18;0.93;;;0.60;;
9306;SDS011;4691;47.612;7.610;2022-09-09T16:56:45;1.10;;;0.80;;
9306;SDS011;4691;47.612;7.610;2022-09-09T16:59:13;1.92;;;0.82;;
9306;SDS011;4691;47.612;7.610;2022-09-09T17:01:40;1.48;;;0.85;;
9306;SDS011;4691;47.612;7.610;2022-09-09T17:04:07;1.42;;;0.60;;
9306;SDS011;4691;47.612;7.610;2022-09-09T17:06:38;2.28;;;0.60;;
9306;SDS011;4691;47.612;7.610;2022-09-09T17:09:10;2.65;;;0.80;;
9306;SDS011;4691;47.612;7.610;2022-09-09T17:11:36;2.58;;;1.00;;
9306;SDS011;4691;47.612;7.610;2022-09-09T17:14:03;2.15;;;0.70;;
9306;SDS011;4691;47.612;7.610;2022-09-09T17:16:32;1.85;;;0.98;;
9306;SDS011;4691;47.612;7.610;2022-09-09T17:19:01;2.80;;;1.08;;
9306;SDS011;4691;47.612;7.610;2022-09-09T17:21:29;1.92;;;0.70;;
9306;SDS011;4691;47.612;7.610;2022-09-09T17:23:55;3.95;;;0.95;;
9306;SDS011;4691;47.612;7.610;2022-09-09T17:26:32;2.72;;;0.88;;
9306;SDS011;4691;47.612;7.610;2022-09-09T17:29:01;1.73;;;0.70;;
9306;SDS011;4691;47.612;7.610;2022-09-09T17:31:28;3.22;;;0.98;;
9306;SDS011;4691;47.612;7.610;2022-09-09T17:33:55;3.22;;;0.95;;
9306;SDS011;4691;47.612;7.610;2022-09-09T17:36:25;1.83;;;0.70;;
9306;SDS011;4691;47.612;7.610;2022-09-09T17:42:20;2.00;;;0.93;;
9306;SDS011;4691;47.612;7.610;2022-09-09T17:44:51;1.65;;;0.90;;
9306;SDS011;4691;47.612;7.610;2022-09-09T17:47:22;1.23;;;0.70;;
9306;SDS011;4691;47.612;7.610;2022-09-09T17:49:51;1.65;;;0.80;;
9306;SDS011;4691;47.612;7.610;2022-09-09T17:55:36;1.42;;;0.80;;
9306;SDS011;4691;47.612;7.610;2022-09-09T18:01:07;2.75;;;0.90;;
9306;SDS011;4691;47.612;7.610;2022-09-09T18:03:38;4.13;;;0.90;;
9306;SDS011;4691;47.612;7.610;2022-09-09T18:07:01;2.83;;;0.88;;
9306;SDS011;4691;47.612;7.610;2022-09-09T18:09:31;4.20;;;1.15;;
9306;SDS011;4691;47.612;7.610;2022-09-09T18:12:37;3.83;;;1.00;;
9306;SDS011;4691;47.612;7.610;2022-09-09T18:15:10;3.83;;;0.95;;
9306;SDS011;4691;47.612;7.610;2022-09-09T18:20:42;2.95;;;1.88;;
9306;SDS011;4691;47.612;7.610;2022-09-09T18:23:11;4.78;;;2.05;;
9306;SDS011;4691;47.612;7.610;2022-09-09T18:26:00;4.90;;;1.20;;
9306;SDS011;4691;47.612;7.610;2022-09-09T18:28:38;4.97;;;1.48;;
9306;SDS011;4691;47.612;7.610;2022-09-09T18:31:12;3.08;;;1.35;;
9306;SDS011;4691;47.612;7.610;2022-09-09T18:33:43;5.00;;;2.17;;
9306;SDS011;4691;47.612;7.610;2022-09-09T18:36:35;8.13;;;1.42;;
9306;SDS011;4691;47.612;7.610;2022-09-09T18:42:18;4.38;;;1.33;;
9306;SDS011;4691;47.612;7.610;2022-09-09T18:44:50;2.05;;;1.20;;
9306;SDS011;4691;47.612;7.610;2022-09-09T18:47:33;3.47;;;1.30;;
9306;SDS011;4691;47.612;7.610;2022-09-09T18:50:13;2.42;;;1.13;;
9306;SDS011;4691;47.612;7.610;2022-09-09T18:52:42;3.00;;;1.10;;
9306;SDS011;4691;47.612;7.610;2022-09-09T18:55:25;1.92;;;1.00;;
9306;SDS011;4691;47.612;7.610;2022-09-09T18:57:52;2.85;;;1.33;;
9306;SDS011;4691;47.612;7.610;2022-09-09T19:00:24;5.40;;;1.50;;
9306;SDS011;4691;47.612;7.610;2022-09-09T19:02:55;3.45;;;1.20;;
9306;SDS011;4691;47.612;7.610;2022-09-09T19:05:45;2.70;;;1.38;;
9306;SDS011;4691;47.612;7.610;2022-09-09T19:14:20;4.20;;;1.30;;
9306;SDS011;4691;47.612;7.610;2022-09-09T19:20:20;4.22;;;1.02;;
9306;SDS011;4691;47.612;7.610;2022-09-09T19:22:55;2.95;;;1.10;;
9306;SDS011;4691;47.612;7.610;2022-09-09T19:26:06;3.13;;;1.13;;
9306;SDS011;4691;47.612;7.610;2022-09-09T19:32:14;5.97;;;1.08;;
9306;SDS011;4691;47.612;7.610;2022-09-09T19:37:43;3.17;;;1.05;;
9306;SDS011;4691;47.612;7.610;2022-09-09T19:45:44;2.10;;;0.90;;
9306;SDS011;4691;47.612;7.610;2022-09-09T19:48:19;2.08;;;1.10;;
9306;SDS011;4691;47.612;7.610;2022-09-09T19:50:45;1.85;;;0.80;;
9306;SDS011;4691;47.612;7.610;2022-09-09T19:53:11;2.10;;;1.02;;
9306;SDS011;4691;47.612;7.610;2022-09-09T19:55:39;3.38;;;0.98;;
9306;SDS011;4691;47.612;7.610;2022-09-09T19:58:05;3.22;;;1.00;;
9306;SDS011;4691;47.612;7.610;2022-09-09T20:00:31;2.85;;;1.08;;
9306;SDS011;4691;47.612;7.610;2022-09-09T20:02:59;3.53;;;0.93;;
9306;SDS011;4691;47.612;7.610;2022-09-09T20:05:24;2.75;;;0.90;;
9306;SDS011;4691;47.612;7.610;2022-09-09T20:07:50;1.65;;;1.10;;
9306;SDS011;4691;47.612;7.610;2022-09-09T20:10:15;4.68;;;1.30;;
9306;SDS011;4691;47.612;7.610;2022-09-09T20:12:41;3.65;;;1.30;;
9306;SDS011;4691;47.612;7.610;2022-09-09T20:15:06;2.83;;;1.10;;
9306;SDS011;4691;47.612;7.610;2022-09-09T20:17:33;3.60;;;1.13;;
9306;SDS011;4691;47.612;7.610;2022-09-09T20:19:59;2.22;;;1.00;;
9306;SDS011;4691;47.612;7.610;2022-09-09T20:22:24;2.92;;;1.02;;
9306;SDS011;4691;47.612;7.610;2022-09-09T20:24:49;7.40;;;4.18;;
9306;SDS011;4691;47.612;7.610;2022-09-09T20:27:15;4.72;;;3.20;;
9306;SDS011;4691;47.612;7.610;2022-09-09T20:29:40;2.63;;;1.90;;
9306;SDS011;4691;47.612;7.610;2022-09-09T20:32:08;4.05;;;2.70;;
9306;SDS011;4691;47.612;7.610;2022-09-09T20:34:33;4.18;;;2.50;;
9306;SDS011;4691;47.612;7.610;2022-09-09T20:36:59;4.60;;;1.92;;
9306;SDS011;4691;47.612;7.610;2022-09-09T20:39:26;2.83;;;1.73;;